createdAt,value
2023-01-19T00:00:23.411Z,37.65
2023-01-19T00:02:50.811Z,34.40
2023-01-19T00:05:17.384Z,36.95
2023-01-19T00:07:43.969Z,36.13
2023-01-19T00:10:11.093Z,33.42
2023-01-19T00:12:37.697Z,31.83
2023-01-19T00:15:04.764Z,33.53
2023-01-19T00:17:31.347Z,34.13
2023-01-19T00:19:57.945Z,36.13
2023-01-19T00:22:24.556Z,36.53
2023-01-19T00:24:51.103Z,36.08
2023-01-19T00:27:17.584Z,35.08
2023-01-19T00:29:44.128Z,37.72
2023-01-19T00:32:10.709Z,33.30
2023-01-19T00:34:39.681Z,46.17
2023-01-19T00:37:07.627Z,45.58
2023-01-19T00:39:34.312Z,40.20
2023-01-19T00:42:19.566Z,45.55
2023-01-19T00:44:46.132Z,47.88
2023-01-19T00:47:12.625Z,63.90
2023-01-19T00:49:39.496Z,60.33
2023-01-19T00:52:06.312Z,64.88
2023-01-19T00:54:32.844Z,55.80
2023-01-19T00:56:59.479Z,59.70
2023-01-19T00:59:26.058Z,56.45
2023-01-19T01:01:53.000Z,41.70
2023-01-19T01:04:20.739Z,51.47
2023-01-19T01:06:47.294Z,41.47
2023-01-19T01:09:13.888Z,50.58
2023-01-19T01:11:42.197Z,35.95
2023-01-19T01:14:10.156Z,42.20
2023-01-19T01:16:36.777Z,42.25
2023-01-19T01:19:03.433Z,39.58
2023-01-19T01:21:30.031Z,42.55
2023-01-19T01:23:56.878Z,42.17
2023-01-19T01:26:23.453Z,38.47
2023-01-19T01:28:50.775Z,37.85
2023-01-19T01:31:17.320Z,39.72
2023-01-19T01:33:43.910Z,42.60
2023-01-19T01:36:11.923Z,44.72
2023-01-19T01:38:41.799Z,47.05
2023-01-19T01:41:08.695Z,35.33
2023-01-19T01:43:42.828Z,40.92
2023-01-19T01:46:09.422Z,36.15
2023-01-19T01:48:38.998Z,38.05
2023-01-19T01:51:24.825Z,37.33
2023-01-19T01:54:19.546Z,38.35
2023-01-19T01:56:52.332Z,40.95
2023-01-19T01:59:26.808Z,39.53
2023-01-19T02:02:14.316Z,43.42
2023-01-19T02:04:50.529Z,51.05
2023-01-19T02:10:24.890Z,38.22
2023-01-19T02:13:10.133Z,41.92
2023-01-19T02:15:36.687Z,44.15
2023-01-19T02:18:03.417Z,41.38
2023-01-19T02:20:31.927Z,47.95
2023-01-19T02:23:03.153Z,40.97
2023-01-19T02:25:29.990Z,38.95
2023-01-19T02:27:57.067Z,43.17
2023-01-19T02:30:24.141Z,42.10
2023-01-19T02:32:50.736Z,44.22
2023-01-19T02:35:17.418Z,41.38
2023-01-19T02:37:45.029Z,47.22
2023-01-19T02:40:15.249Z,46.75
2023-01-19T02:42:45.636Z,51.65
2023-01-19T02:45:20.400Z,44.20
2023-01-19T02:47:49.486Z,41.95
2023-01-19T02:50:57.913Z,42.83
2023-01-19T02:54:01.464Z,44.70
2023-01-19T02:56:37.255Z,41.20
2023-01-19T02:59:37.224Z,35.13
2023-01-19T03:02:27.643Z,40.85
2023-01-19T03:05:34.725Z,43.80
2023-01-19T03:08:19.064Z,40.83
2023-01-19T03:10:57.263Z,37.08
2023-01-19T03:13:33.676Z,44.00
2023-01-19T03:16:29.848Z,44.28
2023-01-19T03:19:07.954Z,47.25
2023-01-19T03:21:37.375Z,46.40
2023-01-19T03:24:08.316Z,44.58
2023-01-19T03:26:45.224Z,47.78
2023-01-19T03:29:14.381Z,43.38
2023-01-19T03:31:46.243Z,43.13
2023-01-19T03:34:15.986Z,38.75
2023-01-19T03:36:59.374Z,42.88
2023-01-19T03:39:27.362Z,37.58
2023-01-19T03:41:58.385Z,37.72
2023-01-19T03:44:27.768Z,32.70
2023-01-19T03:46:55.813Z,39.15
2023-01-19T03:49:22.531Z,34.92
2023-01-19T03:51:49.210Z,38.10
2023-01-19T03:54:16.235Z,37.65
2023-01-19T03:56:43.831Z,39.92
2023-01-19T03:59:10.325Z,40.03
2023-01-19T04:01:37.070Z,38.20
2023-01-19T04:04:03.707Z,40.45
2023-01-19T04:06:30.411Z,38.80
2023-01-19T04:08:56.914Z,42.38
2023-01-19T04:11:23.504Z,39.25
2023-01-19T04:13:50.271Z,44.05
2023-01-19T04:16:20.162Z,45.13
2023-01-19T04:18:47.161Z,42.28
2023-01-19T04:21:13.774Z,38.38
2023-01-19T04:23:40.386Z,45.00
2023-01-19T04:26:08.496Z,47.47
2023-01-19T04:28:37.240Z,40.65
2023-01-19T04:31:04.989Z,38.03
2023-01-19T04:33:31.889Z,38.08
2023-01-19T04:35:59.580Z,45.45
2023-01-19T04:38:27.314Z,40.95
2023-01-19T04:40:54.714Z,41.55
2023-01-19T04:43:22.683Z,30.67
2023-01-19T04:45:49.674Z,36.13
2023-01-19T04:48:18.396Z,32.42
2023-01-19T04:50:45.187Z,38.70
2023-01-19T04:53:13.731Z,32.95
2023-01-19T04:55:40.559Z,32.47
2023-01-19T04:58:07.176Z,33.13
2023-01-19T05:00:34.278Z,34.33
2023-01-19T05:03:01.723Z,40.10
2023-01-19T05:05:29.075Z,37.17
2023-01-19T05:07:55.678Z,38.78
2023-01-19T05:10:22.339Z,41.58
2023-01-19T05:12:48.896Z,39.75
2023-01-19T05:15:15.411Z,36.63
2023-01-19T05:17:42.174Z,37.90
2023-01-19T05:20:14.319Z,37.70
2023-01-19T05:22:42.298Z,35.25
2023-01-19T05:25:09.211Z,35.05
2023-01-19T05:27:37.312Z,37.60
2023-01-19T05:30:05.660Z,36.03
2023-01-19T05:32:32.576Z,37.90
2023-01-19T05:34:59.221Z,35.67
2023-01-19T05:37:33.424Z,35.78
2023-01-19T05:39:59.928Z,31.35
2023-01-19T05:42:26.580Z,35.58
2023-01-19T05:44:53.061Z,33.88
2023-01-19T05:47:19.626Z,28.52
2023-01-19T05:49:46.117Z,30.90
2023-01-19T05:52:12.936Z,31.63
2023-01-19T05:54:40.526Z,27.65
2023-01-19T05:57:07.728Z,30.25
2023-01-19T05:59:34.242Z,29.23
2023-01-19T06:02:01.353Z,28.13
2023-01-19T06:04:27.949Z,27.20
2023-01-19T06:06:54.574Z,23.83
2023-01-19T06:09:21.061Z,27.60
2023-01-19T06:11:47.885Z,25.38
2023-01-19T06:14:14.653Z,26.35
2023-01-19T06:16:41.365Z,28.95
2023-01-19T06:19:07.955Z,27.80
2023-01-19T06:21:34.762Z,31.63
2023-01-19T06:24:01.890Z,29.33
2023-01-19T06:26:28.489Z,30.85
2023-01-19T06:28:55.367Z,35.00
2023-01-19T06:31:22.349Z,31.13
2023-01-19T06:33:49.012Z,32.50
2023-01-19T06:36:15.698Z,35.80
2023-01-19T06:38:42.212Z,35.50
2023-01-19T06:41:08.727Z,32.35
2023-01-19T06:43:35.404Z,30.60
2023-01-19T06:46:02.354Z,31.52
2023-01-19T06:48:28.932Z,53.65
2023-01-19T06:50:57.828Z,33.95
2023-01-19T06:53:27.731Z,51.28
2023-01-19T06:55:54.790Z,40.92
2023-01-19T06:58:21.417Z,30.05
2023-01-19T07:00:59.076Z,27.98
2023-01-19T07:03:25.770Z,39.88
2023-01-19T07:05:53.566Z,36.92
2023-01-19T07:08:20.775Z,28.30
2023-01-19T07:11:25.306Z,23.77
2023-01-19T07:13:37.711Z,26.17
2023-01-19T07:16:09.076Z,27.63
2023-01-19T07:18:36.619Z,25.83
2023-01-19T07:21:03.917Z,28.88
2023-01-19T07:23:30.931Z,29.73
2023-01-19T07:25:58.590Z,28.63
2023-01-19T07:28:25.235Z,38.10
2023-01-19T07:30:53.523Z,27.73
2023-01-19T07:33:22.237Z,24.48
2023-01-19T07:35:50.236Z,23.10
2023-01-19T07:38:18.721Z,23.80
2023-01-19T07:40:48.325Z,23.75
2023-01-19T07:43:15.403Z,22.33
2023-01-19T07:45:42.078Z,22.25
2023-01-19T07:48:08.730Z,22.92
2023-01-19T07:50:35.433Z,21.80
2023-01-19T07:53:09.073Z,20.58
2023-01-19T07:55:35.927Z,20.48
2023-01-19T07:58:06.670Z,25.38
2023-01-19T08:00:35.384Z,24.20
2023-01-19T08:03:03.746Z,22.83
2023-01-19T08:05:31.203Z,23.70
2023-01-19T08:07:58.966Z,22.58
2023-01-19T08:10:27.461Z,23.48
2023-01-19T08:12:54.695Z,22.83
2023-01-19T08:15:24.840Z,22.67
2023-01-19T08:18:00.107Z,22.17
2023-01-19T08:20:28.702Z,22.55
2023-01-19T08:23:03.092Z,20.98
2023-01-19T08:25:35.101Z,23.10
2023-01-19T08:28:04.634Z,23.27
2023-01-19T08:30:31.434Z,24.60
2023-01-19T08:33:04.234Z,23.98
2023-01-19T08:35:32.180Z,21.75
2023-01-19T08:38:01.406Z,23.45
2023-01-19T08:40:35.669Z,24.33
2023-01-19T08:43:09.167Z,27.42
2023-01-19T08:45:37.140Z,24.65
2023-01-19T08:48:04.900Z,24.92
2023-01-19T08:50:32.545Z,23.48
2023-01-19T08:53:00.962Z,21.83
2023-01-19T08:55:29.227Z,23.70
2023-01-19T08:57:58.029Z,22.73
2023-01-19T09:00:27.284Z,23.85
2023-01-19T09:02:55.017Z,23.73
2023-01-19T09:05:21.704Z,24.05
2023-01-19T09:07:48.501Z,31.25
2023-01-19T09:10:16.128Z,26.77
2023-01-19T09:12:43.533Z,26.38
2023-01-19T09:15:12.383Z,25.10
2023-01-19T09:17:41.301Z,21.90
2023-01-19T09:20:09.040Z,22.65
2023-01-19T09:22:35.751Z,23.80
2023-01-19T09:25:02.632Z,23.20
2023-01-19T09:27:29.271Z,20.15
2023-01-19T09:29:55.785Z,23.23
2023-01-19T09:32:23.118Z,21.63
2023-01-19T09:34:49.762Z,22.48
2023-01-19T09:37:16.332Z,24.70
2023-01-19T09:39:42.957Z,22.30
2023-01-19T09:42:27.264Z,20.52
2023-01-19T09:44:54.537Z,20.15
2023-01-19T09:47:27.125Z,22.45
2023-01-19T09:50:01.846Z,22.63
2023-01-19T09:52:31.441Z,24.00
2023-01-19T09:54:58.690Z,21.60
2023-01-19T09:57:27.260Z,24.45
2023-01-19T09:59:59.540Z,23.23
2023-01-19T10:02:49.510Z,23.40
2023-01-19T10:05:31.154Z,23.98
2023-01-19T10:08:06.210Z,24.00
2023-01-19T10:10:34.427Z,21.42
2023-01-19T10:13:22.932Z,23.27
2023-01-19T10:16:22.218Z,22.90
2023-01-19T10:18:51.910Z,26.17
2023-01-19T10:21:33.681Z,25.35
2023-01-19T10:24:13.394Z,26.60
2023-01-19T10:26:47.936Z,28.58
2023-01-19T10:29:25.410Z,28.58
2023-01-19T10:32:04.919Z,26.38
2023-01-19T10:34:32.056Z,28.70
2023-01-19T10:37:27.219Z,33.40
2023-01-19T10:40:22.266Z,32.05
2023-01-19T10:42:48.799Z,28.33
2023-01-19T10:45:20.310Z,31.83
2023-01-19T10:47:48.266Z,29.65
2023-01-19T10:50:37.501Z,27.17
2023-01-19T10:53:06.441Z,26.42
2023-01-19T10:55:38.272Z,28.95
2023-01-19T10:58:06.433Z,30.83
2023-01-19T11:00:39.101Z,26.33
2023-01-19T11:03:31.545Z,28.30
2023-01-19T11:06:33.156Z,38.00
2023-01-19T11:09:21.598Z,32.85
2023-01-19T11:11:54.554Z,45.97
2023-01-19T11:14:24.395Z,35.75
2023-01-19T11:16:58.902Z,27.17
2023-01-19T11:19:29.301Z,26.13
2023-01-19T11:22:27.628Z,24.35
2023-01-19T11:25:02.087Z,24.70
2023-01-19T11:27:30.926Z,22.00
2023-01-19T11:30:05.446Z,21.52
2023-01-19T11:32:37.122Z,23.77
2023-01-19T11:35:40.918Z,22.05
2023-01-19T11:38:09.387Z,20.38
2023-01-19T11:40:36.186Z,22.23
2023-01-19T11:43:05.222Z,20.33
2023-01-19T11:45:35.939Z,20.23
2023-01-19T11:48:05.907Z,23.45
2023-01-19T11:50:37.481Z,20.52
2023-01-19T11:53:18.719Z,20.05
2023-01-19T11:55:59.683Z,19.30
2023-01-19T11:58:27.344Z,24.08
2023-01-19T12:01:10.810Z,21.15
2023-01-19T12:03:43.159Z,19.08
2023-01-19T12:06:16.880Z,17.92
2023-01-19T12:09:11.455Z,19.60
2023-01-19T12:11:43.999Z,19.95
2023-01-19T12:14:23.093Z,16.55
2023-01-19T12:16:53.299Z,19.45
2023-01-19T12:19:26.500Z,22.27
2023-01-19T12:21:53.756Z,17.60
2023-01-19T12:24:40.519Z,18.38
2023-01-19T12:27:23.841Z,24.80
2023-01-19T12:29:53.141Z,26.20
2023-01-19T12:32:33.451Z,15.90
2023-01-19T12:35:00.037Z,19.15
2023-01-19T12:37:44.644Z,16.48
2023-01-19T12:40:28.643Z,18.60
2023-01-19T12:43:14.850Z,16.70
2023-01-19T12:45:50.316Z,16.63
2023-01-19T12:48:27.606Z,15.38
2023-01-19T12:50:54.264Z,17.35
2023-01-19T12:53:22.653Z,16.35
2023-01-19T12:56:01.150Z,15.15
2023-01-19T12:58:31.789Z,15.95
2023-01-19T13:01:21.192Z,14.38
2023-01-19T13:04:26.621Z,17.85
2023-01-19T13:06:54.162Z,16.27
2023-01-19T13:09:35.562Z,15.05
2023-01-19T13:12:14.137Z,16.05
2023-01-19T13:14:44.445Z,14.90
2023-01-19T13:17:23.781Z,13.23
2023-01-19T13:20:04.130Z,12.93
2023-01-19T13:23:07.896Z,13.90
2023-01-19T13:25:35.711Z,9.95
2023-01-19T13:28:11.167Z,13.27
2023-01-19T13:30:54.300Z,14.63
2023-01-19T13:33:24.409Z,13.48
2023-01-19T13:35:59.191Z,10.88
2023-01-19T13:38:30.247Z,10.60
2023-01-19T13:41:04.605Z,10.55
2023-01-19T13:43:37.502Z,12.45
2023-01-19T13:46:08.383Z,10.63
2023-01-19T13:48:34.967Z,9.55
2023-01-19T13:51:07.492Z,9.35
2023-01-19T13:53:34.482Z,10.75
2023-01-19T13:56:14.313Z,10.48
2023-01-19T13:58:43.086Z,11.02
2023-01-19T14:01:28.826Z,10.77
2023-01-19T14:03:56.069Z,9.38
2023-01-19T14:06:31.792Z,10.32
2023-01-19T14:09:09.708Z,9.50
2023-01-19T14:11:38.211Z,10.20
2023-01-19T14:14:04.753Z,9.48
2023-01-19T14:16:35.159Z,11.82
2023-01-19T14:19:05.393Z,11.60
2023-01-19T14:21:42.315Z,9.25
2023-01-19T14:24:17.013Z,10.48
2023-01-19T14:26:48.365Z,11.02
2023-01-19T14:29:35.510Z,9.60
2023-01-19T14:32:19.401Z,9.40
2023-01-19T14:34:47.605Z,8.82
2023-01-19T14:37:31.511Z,8.60
2023-01-19T14:40:13.742Z,9.75
2023-01-19T14:42:43.232Z,8.48
2023-01-19T14:45:19.246Z,9.90
2023-01-19T14:47:53.194Z,9.50
2023-01-19T14:50:25.831Z,9.10
2023-01-19T14:53:02.233Z,10.85
2023-01-19T14:55:52.379Z,10.15
2023-01-19T14:58:21.129Z,9.88
2023-01-19T15:00:49.069Z,9.38
2023-01-19T15:03:16.187Z,10.30
2023-01-19T15:05:46.954Z,9.50
2023-01-19T15:08:30.012Z,10.07
2023-01-19T15:10:58.029Z,9.27
2023-01-19T15:13:32.339Z,10.15
2023-01-19T15:16:04.647Z,10.30
2023-01-19T15:18:31.379Z,8.77
2023-01-19T15:21:02.857Z,9.68
2023-01-19T15:23:35.306Z,9.80
2023-01-19T15:26:04.276Z,11.27
2023-01-19T15:28:31.602Z,13.95
2023-01-19T15:30:59.386Z,12.68
2023-01-19T15:33:30.469Z,14.63
2023-01-19T15:35:57.318Z,11.27
2023-01-19T15:38:24.090Z,8.98
2023-01-19T15:40:51.670Z,11.07
2023-01-19T15:43:18.745Z,12.57
2023-01-19T15:45:50.299Z,15.18
2023-01-19T15:48:16.932Z,11.05
2023-01-19T15:50:44.918Z,10.63
2023-01-19T15:53:17.235Z,13.18
2023-01-19T15:55:44.535Z,12.00
2023-01-19T15:58:14.191Z,11.65
2023-01-19T16:00:41.029Z,10.75
2023-01-19T16:03:08.094Z,10.07
2023-01-19T16:05:42.793Z,9.77
2023-01-19T16:08:13.338Z,9.65
2023-01-19T16:10:43.017Z,12.05
2023-01-19T16:13:14.133Z,11.80
2023-01-19T16:15:42.571Z,10.45
2023-01-19T16:18:09.399Z,10.15
2023-01-19T16:20:36.230Z,11.38
2023-01-19T16:23:14.457Z,10.68
2023-01-19T16:25:42.014Z,10.77
2023-01-19T16:28:09.214Z,10.23
2023-01-19T16:30:35.842Z,12.40
2023-01-19T16:33:02.415Z,10.68
2023-01-19T16:35:28.979Z,11.13
2023-01-19T16:37:55.516Z,10.68
2023-01-19T16:40:22.151Z,11.43
2023-01-19T16:42:48.757Z,11.95
2023-01-19T16:45:15.358Z,11.27
2023-01-19T16:47:42.101Z,11.02
2023-01-19T16:50:11.197Z,10.38
2023-01-19T16:52:38.301Z,12.63
2023-01-19T16:55:09.359Z,12.63
2023-01-19T16:57:41.754Z,11.27
2023-01-19T17:00:10.523Z,14.02
2023-01-19T17:02:37.494Z,11.18
2023-01-19T17:05:04.745Z,10.13
2023-01-19T17:07:31.401Z,9.32
2023-01-19T17:09:58.017Z,11.85
2023-01-19T17:12:24.681Z,11.25
2023-01-19T17:14:51.178Z,10.05
2023-01-19T17:17:17.706Z,11.90
2023-01-19T17:19:45.209Z,10.73
2023-01-19T17:22:12.974Z,11.85
2023-01-19T17:24:45.124Z,13.02
2023-01-19T17:27:11.737Z,10.23
2023-01-19T17:29:38.319Z,10.50
2023-01-19T17:32:05.309Z,9.57
2023-01-19T17:34:32.060Z,8.60
2023-01-19T17:37:03.332Z,9.10
2023-01-19T17:39:30.049Z,12.10
2023-01-19T17:41:56.967Z,11.77
2023-01-19T17:44:23.912Z,9.50
2023-01-19T17:46:50.883Z,9.88
2023-01-19T17:49:19.780Z,10.73
2023-01-19T17:51:51.883Z,12.18
2023-01-19T17:54:18.431Z,10.18
2023-01-19T17:56:45.008Z,10.48
2023-01-19T17:59:11.532Z,10.38
2023-01-19T18:01:40.427Z,8.88
2023-01-19T18:04:09.727Z,11.85
2023-01-19T18:06:37.447Z,9.23
2023-01-19T18:09:05.147Z,9.60
2023-01-19T18:11:31.795Z,10.38
2023-01-19T18:14:00.387Z,10.25
2023-01-19T18:16:28.541Z,10.45
2023-01-19T18:18:56.421Z,12.70
2023-01-19T18:21:24.537Z,9.73
2023-01-19T18:23:51.612Z,10.95
2023-01-19T18:26:22.611Z,9.80
2023-01-19T18:28:49.878Z,13.82
2023-01-19T18:31:18.693Z,9.65
2023-01-19T18:33:46.991Z,8.75
2023-01-19T18:36:15.914Z,8.00
2023-01-19T18:38:42.914Z,9.82
2023-01-19T18:41:20.700Z,8.00
2023-01-19T18:43:48.007Z,9.30
2023-01-19T18:46:14.945Z,8.88
2023-01-19T18:48:41.790Z,8.75
2023-01-19T18:51:09.926Z,12.23
2023-01-19T18:53:37.364Z,8.15
2023-01-19T18:56:05.288Z,7.47
2023-01-19T18:58:36.575Z,7.07
2023-01-19T19:01:03.256Z,9.07
2023-01-19T19:03:30.179Z,8.88
2023-01-19T19:05:56.945Z,8.30
2023-01-19T19:08:23.680Z,7.70
2023-01-19T19:10:50.245Z,8.50
2023-01-19T19:13:17.743Z,9.07
2023-01-19T19:15:47.091Z,47.88
2023-01-19T19:18:14.300Z,10.80
2023-01-19T19:20:42.158Z,9.02
2023-01-19T19:23:08.923Z,10.70
2023-01-19T19:25:35.487Z,8.30
2023-01-19T19:28:01.984Z,8.07
2023-01-19T19:30:28.666Z,7.68
2023-01-19T19:32:59.964Z,9.63
2023-01-19T19:35:26.486Z,9.02
2023-01-19T19:37:57.405Z,8.30
2023-01-19T19:40:26.082Z,10.13
2023-01-19T19:42:52.942Z,9.65
2023-01-19T19:45:22.049Z,8.05
2023-01-19T19:47:48.630Z,9.90
2023-01-19T19:50:15.674Z,8.55
2023-01-19T19:52:42.553Z,8.90
2023-01-19T19:55:10.863Z,11.27
2023-01-19T19:57:37.761Z,8.30
2023-01-19T20:00:05.390Z,7.45
2023-01-19T20:02:32.435Z,8.80
2023-01-19T20:04:59.150Z,9.43
2023-01-19T20:07:25.815Z,8.68
2023-01-19T20:09:53.565Z,7.38
2023-01-19T20:12:23.207Z,8.75
2023-01-19T20:14:49.828Z,6.88
2023-01-19T20:17:20.744Z,7.97
2023-01-19T20:19:49.055Z,11.20
2023-01-19T20:22:17.889Z,9.63
2023-01-19T20:24:44.826Z,10.10
2023-01-19T20:27:11.323Z,9.93
2023-01-19T20:29:39.915Z,9.88
2023-01-19T20:32:06.545Z,9.27
2023-01-19T20:34:39.119Z,8.23
2023-01-19T20:37:06.240Z,11.02
2023-01-19T20:39:36.549Z,10.65
2023-01-19T20:42:03.333Z,9.40
2023-01-19T20:44:30.299Z,10.25
2023-01-19T20:46:56.929Z,10.93
2023-01-19T20:49:30.744Z,10.85
2023-01-19T20:51:57.794Z,11.05
2023-01-19T20:54:27.399Z,9.77
2023-01-19T20:56:54.328Z,9.60
2023-01-19T20:59:20.955Z,7.78
2023-01-19T21:01:48.574Z,10.73
2023-01-19T21:04:17.152Z,8.07
2023-01-19T21:06:44.184Z,8.25
2023-01-19T21:09:11.210Z,9.88
2023-01-19T21:11:39.513Z,9.75
2023-01-19T21:14:08.249Z,10.77
2023-01-19T21:16:35.632Z,10.98
2023-01-19T21:19:02.612Z,9.95
2023-01-19T21:21:31.227Z,8.07
2023-01-19T21:23:59.894Z,8.75
2023-01-19T21:26:29.788Z,9.45
2023-01-19T21:28:58.246Z,9.07
2023-01-19T21:31:27.374Z,8.38
2023-01-19T21:33:54.415Z,8.60
2023-01-19T21:36:22.507Z,11.65
2023-01-19T21:38:50.600Z,9.00
2023-01-19T21:41:17.245Z,11.85
2023-01-19T21:43:43.935Z,10.68
2023-01-19T21:46:14.615Z,11.68
2023-01-19T21:48:44.155Z,14.15
2023-01-19T21:51:10.699Z,12.60
2023-01-19T21:53:40.075Z,12.25
2023-01-19T21:56:10.855Z,10.98
2023-01-19T21:58:37.813Z,21.40
2023-01-19T22:01:10.862Z,11.45
2023-01-19T22:03:37.617Z,11.60
2023-01-19T22:06:07.883Z,25.23
2023-01-19T22:08:35.421Z,11.05
2023-01-19T22:11:09.361Z,12.00
2023-01-19T22:13:38.530Z,16.43
2023-01-19T22:16:10.975Z,9.75
2023-01-19T22:18:39.529Z,10.55
2023-01-19T22:21:17.357Z,10.10
2023-01-19T22:23:44.364Z,10.45
2023-01-19T22:26:11.627Z,8.98
2023-01-19T22:28:38.321Z,10.95
2023-01-19T22:31:07.453Z,10.80
2023-01-19T22:33:34.643Z,12.13
2023-01-19T22:36:16.820Z,9.80
2023-01-19T22:38:55.431Z,8.63
2023-01-19T22:41:32.704Z,11.60
2023-01-19T22:44:07.695Z,9.43
2023-01-19T22:49:02.237Z,11.23
2023-01-19T22:51:30.868Z,13.27
2023-01-19T22:53:57.786Z,9.95
2023-01-19T22:56:26.505Z,10.25
2023-01-19T22:58:53.536Z,14.32
2023-01-19T23:01:23.514Z,9.93
2023-01-19T23:03:50.658Z,15.43
2023-01-19T23:06:23.364Z,10.82
2023-01-19T23:08:50.767Z,9.93
2023-01-19T23:11:19.863Z,9.85
2023-01-19T23:13:46.701Z,11.32
2023-01-19T23:16:13.989Z,10.70
2023-01-19T23:18:41.750Z,13.98
2023-01-19T23:21:11.893Z,12.13
2023-01-19T23:23:38.515Z,11.50
2023-01-19T23:26:10.746Z,11.23
2023-01-19T23:28:37.358Z,11.18
2023-01-19T23:31:13.167Z,13.30
2023-01-19T23:33:41.594Z,11.15
2023-01-19T23:36:08.797Z,10.90
2023-01-19T23:38:35.331Z,12.40
2023-01-19T23:41:01.891Z,11.18
2023-01-19T23:43:28.521Z,11.88
2023-01-19T23:45:55.426Z,15.02
2023-01-19T23:48:22.156Z,14.00
2023-01-19T23:50:48.724Z,13.57
2023-01-19T23:53:17.105Z,11.18
2023-01-19T23:55:43.649Z,11.93
2023-01-19T23:58:10.255Z,12.68
